createdAt,value
2018-10-04T00:02:04.308Z,8.90
2018-10-04T00:04:39.641Z,8.90
2018-10-04T00:07:15.196Z,9.00
2018-10-04T00:09:50.587Z,9.00
2018-10-04T00:12:25.941Z,9.10
2018-10-04T00:15:01.117Z,9.10
2018-10-04T00:17:36.807Z,9.20
2018-10-04T00:20:12.461Z,9.20
2018-10-04T00:22:47.871Z,9.30
2018-10-04T00:25:23.184Z,9.30
2018-10-04T00:27:58.638Z,9.30
2018-10-04T00:30:34.041Z,9.30
2018-10-04T00:33:09.405Z,9.30
2018-10-04T00:35:44.848Z,9.40
2018-10-04T00:38:20.413Z,9.40
2018-10-04T00:40:55.844Z,9.40
2018-10-04T00:43:31.329Z,9.40
2018-10-04T00:46:06.738Z,9.50
2018-10-04T00:48:42.257Z,9.50
2018-10-04T00:51:17.775Z,9.50
2018-10-04T00:53:53.689Z,9.50
2018-10-04T00:56:29.167Z,9.50
2018-10-04T00:59:04.725Z,9.60
2018-10-04T01:01:40.161Z,9.50
2018-10-04T01:04:15.596Z,9.50
2018-10-04T01:06:50.985Z,9.50
2018-10-04T01:09:26.750Z,9.50
2018-10-04T01:12:02.263Z,9.50
2018-10-04T01:14:37.850Z,9.50
2018-10-04T01:17:13.341Z,9.50
2018-10-04T01:19:49.240Z,9.50
2018-10-04T01:22:24.717Z,9.50
2018-10-04T01:25:00.221Z,9.50
2018-10-04T01:27:35.570Z,9.50
2018-10-04T01:30:11.134Z,9.50
2018-10-04T01:32:46.465Z,9.50
2018-10-04T01:35:22.205Z,9.50
2018-10-04T01:38:00.365Z,9.50
2018-10-04T01:40:35.889Z,9.50
2018-10-04T01:43:11.125Z,9.50
2018-10-04T01:45:46.457Z,9.60
2018-10-04T01:48:21.742Z,9.60
2018-10-04T01:50:57.481Z,9.70
2018-10-04T01:53:32.821Z,9.70
2018-10-04T01:56:08.320Z,9.70
2018-10-04T01:58:43.648Z,9.70
2018-10-04T02:01:19.287Z,9.60
2018-10-04T02:03:54.676Z,9.60
2018-10-04T02:06:30.686Z,9.60
2018-10-04T02:09:07.963Z,9.60
2018-10-04T02:11:43.516Z,9.70
2018-10-04T02:14:19.049Z,9.70
2018-10-04T02:16:54.620Z,9.70
2018-10-04T02:19:29.984Z,9.70
2018-10-04T02:22:05.734Z,9.80
2018-10-04T02:24:41.086Z,9.80
2018-10-04T02:27:16.636Z,9.80
2018-10-04T02:29:52.033Z,9.90
2018-10-04T02:32:27.699Z,9.90
2018-10-04T02:35:02.920Z,9.90
2018-10-04T02:37:38.471Z,9.90
2018-10-04T02:40:14.241Z,9.90
2018-10-04T02:42:49.692Z,9.90
2018-10-04T02:45:24.857Z,9.90
2018-10-04T02:48:00.429Z,9.90
2018-10-04T02:50:36.033Z,9.90
2018-10-04T02:53:11.610Z,9.90
2018-10-04T02:55:52.466Z,9.90
2018-10-04T02:58:27.961Z,9.90
2018-10-04T03:01:03.310Z,9.90
2018-10-04T03:03:38.867Z,10.00
2018-10-04T03:06:14.110Z,10.00
2018-10-04T03:08:49.862Z,10.00
2018-10-04T03:11:25.374Z,10.10
2018-10-04T03:14:00.982Z,10.10
2018-10-04T03:16:36.431Z,10.10
2018-10-04T03:19:12.565Z,10.10
2018-10-04T03:21:51.209Z,10.20
2018-10-04T03:24:26.980Z,10.10
2018-10-04T03:27:02.320Z,10.20
2018-10-04T03:29:37.777Z,10.10
2018-10-04T03:32:13.158Z,10.20
2018-10-04T03:34:48.576Z,10.20
2018-10-04T03:37:23.995Z,10.20
2018-10-04T03:39:59.619Z,10.20
2018-10-04T03:42:35.174Z,10.20
2018-10-04T03:45:10.681Z,10.20
2018-10-04T03:47:46.195Z,10.20
2018-10-04T03:50:21.722Z,10.20
2018-10-04T03:52:57.076Z,10.20
2018-10-04T03:55:32.652Z,10.20
2018-10-04T03:58:08.160Z,10.30
2018-10-04T04:00:43.765Z,10.20
2018-10-04T04:03:19.304Z,10.30
2018-10-04T04:05:54.983Z,10.30
2018-10-04T04:08:30.552Z,10.20
2018-10-04T04:11:06.527Z,10.20
2018-10-04T04:13:41.820Z,10.20
2018-10-04T04:16:17.375Z,10.20
2018-10-04T04:18:52.802Z,10.20
2018-10-04T04:21:28.292Z,10.20
2018-10-04T04:24:03.664Z,10.20
2018-10-04T04:26:39.197Z,10.10
2018-10-04T04:29:14.584Z,10.20
2018-10-04T04:31:50.159Z,10.10
2018-10-04T04:34:25.739Z,10.10
2018-10-04T04:37:01.126Z,10.10
2018-10-04T04:39:36.528Z,10.10
2018-10-04T04:42:12.159Z,10.10
2018-10-04T04:44:47.812Z,10.10
2018-10-04T04:47:23.605Z,10.00
2018-10-04T04:49:59.044Z,10.00
2018-10-04T04:52:34.568Z,10.00
2018-10-04T04:55:25.809Z,10.00
2018-10-04T04:58:02.418Z,10.00
2018-10-04T05:00:38.996Z,10.10
2018-10-04T05:03:14.626Z,10.10
2018-10-04T05:05:50.025Z,10.10
2018-10-04T05:08:25.568Z,10.20
2018-10-04T05:11:00.930Z,10.20
2018-10-04T05:13:36.473Z,10.20
2018-10-04T05:16:12.107Z,10.20
2018-10-04T05:18:47.696Z,10.20
2018-10-04T05:21:23.198Z,10.30
2018-10-04T05:23:58.805Z,10.30
2018-10-04T05:26:34.190Z,10.30
2018-10-04T05:29:09.786Z,10.30
2018-10-04T05:31:45.193Z,10.40
2018-10-04T05:34:20.721Z,10.40
2018-10-04T05:36:56.340Z,10.30
2018-10-04T05:39:31.781Z,10.40
2018-10-04T05:42:07.193Z,10.40
2018-10-04T05:44:43.044Z,10.40
2018-10-04T05:47:18.576Z,10.50
2018-10-04T05:49:54.296Z,10.50
2018-10-04T05:52:29.717Z,10.50
2018-10-04T05:55:05.261Z,10.60
2018-10-04T05:57:40.705Z,10.60
2018-10-04T06:00:48.845Z,10.60
2018-10-04T06:03:24.347Z,10.60
2018-10-04T06:05:59.837Z,10.60
2018-10-04T06:08:35.398Z,10.70
2018-10-04T06:11:10.901Z,10.70
2018-10-04T06:13:46.309Z,10.70
2018-10-04T06:16:21.741Z,10.70
2018-10-04T06:18:57.155Z,10.80
2018-10-04T06:21:32.546Z,10.80
2018-10-04T06:24:07.997Z,10.80
2018-10-04T06:26:43.441Z,10.80
2018-10-04T06:29:18.913Z,10.90
2018-10-04T06:31:54.457Z,10.90
2018-10-04T06:34:29.777Z,10.90
2018-10-04T06:37:05.302Z,11.00
2018-10-04T06:39:40.723Z,11.00
2018-10-04T06:42:16.256Z,11.10
2018-10-04T06:44:51.832Z,11.20
2018-10-04T06:47:27.418Z,11.20
2018-10-04T06:50:02.802Z,11.30
2018-10-04T06:52:38.373Z,11.30
2018-10-04T06:55:13.881Z,11.30
2018-10-04T06:57:49.466Z,11.30
2018-10-04T07:03:04.413Z,11.40
2018-10-04T07:05:39.646Z,11.40
2018-10-04T07:08:15.260Z,11.40
2018-10-04T07:10:50.749Z,11.50
2018-10-04T07:13:26.281Z,11.60
2018-10-04T07:16:01.899Z,11.60
2018-10-04T07:18:37.301Z,11.70
2018-10-04T07:21:12.829Z,11.80
2018-10-04T07:23:48.313Z,11.90
2018-10-04T07:26:23.537Z,11.80
2018-10-04T07:28:58.989Z,11.80
2018-10-04T07:31:34.517Z,11.90
2018-10-04T07:34:10.007Z,11.80
2018-10-04T07:36:45.417Z,11.90
2018-10-04T07:39:20.945Z,11.90
2018-10-04T07:41:56.361Z,12.00
2018-10-04T07:44:31.723Z,12.10
2018-10-04T07:47:07.105Z,12.10
2018-10-04T07:49:42.593Z,12.20
2018-10-04T07:52:18.091Z,12.30
2018-10-04T07:54:53.549Z,12.40
2018-10-04T07:57:29.113Z,12.40
2018-10-04T08:00:04.944Z,12.60
2018-10-04T08:02:40.526Z,12.70
2018-10-04T08:05:15.863Z,12.90
2018-10-04T08:07:51.221Z,13.10
2018-10-04T08:10:26.949Z,13.20
2018-10-04T08:13:02.569Z,13.20
2018-10-04T08:15:38.203Z,13.20
2018-10-04T08:18:13.771Z,13.00
2018-10-04T08:20:49.175Z,13.00
2018-10-04T08:23:24.649Z,13.10
2018-10-04T08:26:00.093Z,13.10
2018-10-04T08:28:35.598Z,13.10
2018-10-04T08:31:11.093Z,13.20
2018-10-04T08:33:46.662Z,13.40
2018-10-04T08:36:22.256Z,13.50
2018-10-04T08:38:57.691Z,13.60
2018-10-04T08:41:33.209Z,13.70
2018-10-04T08:44:08.681Z,13.60
2018-10-04T08:46:44.256Z,13.60
2018-10-04T08:49:19.732Z,13.70
2018-10-04T08:51:55.281Z,13.70
2018-10-04T08:54:32.165Z,13.80
2018-10-04T08:57:07.639Z,13.80
2018-10-04T08:59:43.357Z,13.80
2018-10-04T09:02:18.853Z,13.90
2018-10-04T09:04:54.081Z,13.90
2018-10-04T09:07:29.589Z,14.00
2018-10-04T09:10:05.089Z,14.20
2018-10-04T09:12:40.597Z,14.40
2018-10-04T09:15:15.821Z,14.50
2018-10-04T09:17:51.244Z,14.60
2018-10-04T09:20:27.231Z,14.50
2018-10-04T09:23:02.841Z,14.50
2018-10-04T09:25:38.248Z,14.40
2018-10-04T09:28:14.777Z,14.40
2018-10-04T09:30:55.685Z,14.30
2018-10-04T09:33:31.237Z,14.30
2018-10-04T09:36:13.458Z,14.40
2018-10-04T09:38:48.966Z,14.40
2018-10-04T09:41:24.517Z,14.50
2018-10-04T09:44:00.395Z,14.50
2018-10-04T09:46:35.870Z,14.60
2018-10-04T09:49:11.724Z,14.70
2018-10-04T09:51:52.449Z,14.80
2018-10-04T09:54:33.285Z,14.80
2018-10-04T09:57:14.021Z,14.90
2018-10-04T09:59:49.637Z,15.10
2018-10-04T10:02:28.886Z,15.00
2018-10-04T10:05:04.300Z,15.10
2018-10-04T10:07:40.104Z,15.00
2018-10-04T10:10:15.548Z,14.90
2018-10-04T10:12:50.778Z,14.80
2018-10-04T10:15:26.273Z,14.70
2018-10-04T10:18:01.858Z,14.60
2018-10-04T10:20:37.392Z,14.60
2018-10-04T10:23:12.865Z,14.70
2018-10-04T10:25:48.341Z,15.00
2018-10-04T10:28:23.873Z,14.90
2018-10-04T10:30:59.404Z,14.90
2018-10-04T10:33:34.936Z,14.90
2018-10-04T10:36:10.605Z,14.80
2018-10-04T10:38:46.145Z,14.60
2018-10-04T10:41:21.697Z,14.50
2018-10-04T10:43:57.277Z,14.50
2018-10-04T10:46:33.018Z,14.40
2018-10-04T10:49:08.498Z,14.40
2018-10-04T10:51:44.193Z,14.40
2018-10-04T10:54:19.688Z,14.40
2018-10-04T10:56:55.109Z,14.50
2018-10-04T10:59:30.512Z,14.70
2018-10-04T11:02:06.058Z,14.90
2018-10-04T11:04:41.514Z,15.00
2018-10-04T11:07:16.986Z,15.20
2018-10-04T11:09:52.574Z,15.30
2018-10-04T11:12:27.985Z,15.40
2018-10-04T11:15:03.395Z,15.50
2018-10-04T11:17:38.982Z,15.70
2018-10-04T11:20:14.673Z,15.70
2018-10-04T11:22:50.365Z,15.80
2018-10-04T11:25:25.881Z,15.70
2018-10-04T11:28:01.561Z,15.70
2018-10-04T11:30:36.997Z,15.60
2018-10-04T11:33:12.667Z,15.50
2018-10-04T11:35:48.006Z,15.50
2018-10-04T11:38:23.635Z,15.50
2018-10-04T11:40:58.995Z,15.60
2018-10-04T11:43:34.413Z,15.50
2018-10-04T11:46:09.949Z,15.50
2018-10-04T11:48:47.119Z,15.30
2018-10-04T11:51:22.523Z,15.10
2018-10-04T11:53:58.120Z,15.00
2018-10-04T11:56:33.597Z,14.90
2018-10-04T11:59:09.658Z,14.90
2018-10-04T12:01:45.303Z,14.90
2018-10-04T12:04:20.640Z,15.10
2018-10-04T12:06:55.980Z,15.10
2018-10-04T12:09:31.575Z,15.10
2018-10-04T12:12:06.989Z,15.10
2018-10-04T12:14:42.818Z,15.10
2018-10-04T12:17:18.292Z,15.10
2018-10-04T12:19:53.760Z,15.10
2018-10-04T12:22:29.189Z,15.10
2018-10-04T12:25:04.677Z,15.10
2018-10-04T12:27:40.268Z,15.00
2018-10-04T12:30:16.173Z,15.00
2018-10-04T12:32:51.554Z,15.10
2018-10-04T12:35:27.116Z,15.40
2018-10-04T12:38:02.595Z,15.60
2018-10-04T12:40:38.313Z,15.70
2018-10-04T12:43:13.721Z,15.70
2018-10-04T12:45:49.246Z,15.90
2018-10-04T12:48:24.581Z,16.10
2018-10-04T12:51:00.028Z,16.30
2018-10-04T12:53:35.425Z,16.40
2018-10-04T12:56:10.831Z,16.50
2018-10-04T12:58:46.299Z,16.40
2018-10-04T13:01:21.844Z,16.60
2018-10-04T13:03:57.301Z,16.60
2018-10-04T13:06:32.678Z,16.60
2018-10-04T13:09:09.536Z,16.60
2018-10-04T13:11:45.018Z,16.60
2018-10-04T13:14:20.555Z,16.80
2018-10-04T13:16:56.104Z,16.90
2018-10-04T13:19:31.590Z,16.90
2018-10-04T13:22:07.048Z,16.90
2018-10-04T13:24:42.622Z,16.90
2018-10-04T13:27:18.309Z,17.00
2018-10-04T13:29:53.881Z,16.80
2018-10-04T13:32:29.524Z,16.80
2018-10-04T13:35:04.885Z,16.80
2018-10-04T13:37:40.584Z,17.00
2018-10-04T13:40:16.054Z,17.00
2018-10-04T13:42:51.612Z,17.10
2018-10-04T13:45:27.053Z,17.10
2018-10-04T13:48:02.474Z,17.20
2018-10-04T13:50:37.938Z,17.30
2018-10-04T13:53:13.381Z,17.30
2018-10-04T13:55:48.822Z,17.20
2018-10-04T13:58:24.205Z,17.20
2018-10-04T14:00:59.585Z,17.20
2018-10-04T14:03:35.201Z,17.30
2018-10-04T14:06:10.590Z,17.30
2018-10-04T14:08:46.002Z,17.20
2018-10-04T14:11:21.549Z,17.20
2018-10-04T14:13:57.056Z,17.10
2018-10-04T14:16:32.464Z,16.90
2018-10-04T14:19:08.282Z,16.90
2018-10-04T14:21:43.748Z,17.00
2018-10-04T14:24:19.204Z,16.90
2018-10-04T14:26:54.541Z,17.00
2018-10-04T14:29:29.965Z,17.00
2018-10-04T14:32:05.288Z,16.90
2018-10-04T14:34:41.150Z,16.90
2018-10-04T14:37:16.697Z,16.90
2018-10-04T14:39:52.186Z,16.90
2018-10-04T14:42:27.601Z,16.90
2018-10-04T14:45:03.117Z,16.80
2018-10-04T14:47:38.769Z,16.70
2018-10-04T14:50:14.131Z,16.70
2018-10-04T14:52:56.356Z,16.70
2018-10-04T14:55:31.876Z,16.60
2018-10-04T14:58:07.391Z,16.60
2018-10-04T15:00:42.860Z,16.60
2018-10-04T15:03:18.359Z,16.60
2018-10-04T15:05:53.909Z,16.50
2018-10-04T15:08:29.241Z,16.50
2018-10-04T15:11:04.881Z,16.30
2018-10-04T15:13:40.422Z,16.30
2018-10-04T15:16:15.951Z,16.30
2018-10-04T15:18:51.378Z,16.30
2018-10-04T15:21:27.006Z,16.30
2018-10-04T15:24:02.285Z,16.20
2018-10-04T15:26:37.888Z,16.20
2018-10-04T15:29:13.261Z,16.10
2018-10-04T15:31:48.874Z,16.10
2018-10-04T15:34:24.236Z,16.10
2018-10-04T15:36:59.881Z,16.00
2018-10-04T15:39:35.141Z,16.00
2018-10-04T15:42:10.809Z,16.00
2018-10-04T15:44:46.188Z,15.90
2018-10-04T15:47:21.798Z,15.90
2018-10-04T15:49:57.221Z,15.80
2018-10-04T15:52:32.696Z,15.80
2018-10-04T15:55:08.078Z,15.70
2018-10-04T15:57:43.494Z,15.70
2018-10-04T16:00:19.001Z,15.70
2018-10-04T16:02:54.469Z,15.60
2018-10-04T16:05:29.973Z,15.60
2018-10-04T16:08:05.502Z,15.50
2018-10-04T16:10:41.089Z,15.50
2018-10-04T16:13:16.703Z,15.50
2018-10-04T16:15:53.977Z,15.50
2018-10-04T16:18:29.667Z,15.40
2018-10-04T16:21:05.031Z,15.40
2018-10-04T16:23:40.521Z,15.30
2018-10-04T16:26:16.062Z,15.30
2018-10-04T16:28:52.037Z,15.30
2018-10-04T16:31:27.848Z,15.30
2018-10-04T16:34:03.426Z,15.20
2018-10-04T16:36:38.799Z,15.20
2018-10-04T16:39:14.501Z,15.20
2018-10-04T16:41:49.885Z,15.10
2018-10-04T16:44:25.251Z,15.10
2018-10-04T16:47:00.913Z,15.00
2018-10-04T16:49:37.029Z,15.00
2018-10-04T16:52:12.420Z,15.00
2018-10-04T16:54:47.881Z,14.90
2018-10-04T16:57:23.276Z,14.80
2018-10-04T16:59:59.057Z,14.80
2018-10-04T17:02:34.425Z,14.70
2018-10-04T17:05:09.939Z,14.60
2018-10-04T17:07:45.499Z,14.60
2018-10-04T17:10:21.250Z,14.60
2018-10-04T17:12:56.640Z,14.50
2018-10-04T17:15:32.047Z,14.50
2018-10-04T17:18:07.885Z,14.40
2018-10-04T17:20:43.358Z,14.40
2018-10-04T17:23:18.766Z,14.30
2018-10-04T17:25:54.376Z,14.30
2018-10-04T17:28:29.762Z,14.20
2018-10-04T17:31:05.274Z,14.30
2018-10-04T17:33:40.719Z,14.30
2018-10-04T17:36:16.373Z,14.30
2018-10-04T17:38:51.792Z,14.30
2018-10-04T17:41:27.547Z,14.20
2018-10-04T17:44:02.935Z,14.20
2018-10-04T17:46:38.393Z,14.30
2018-10-04T17:49:13.816Z,14.30
2018-10-04T17:51:49.442Z,14.20
2018-10-04T17:54:24.970Z,14.30
2018-10-04T17:57:00.589Z,14.20
2018-10-04T17:59:36.024Z,14.20
2018-10-04T18:02:11.655Z,14.20
2018-10-04T18:04:47.077Z,14.20
2018-10-04T18:07:22.604Z,14.20
2018-10-04T18:09:58.076Z,14.20
2018-10-04T18:12:33.631Z,14.20
2018-10-04T18:15:09.085Z,14.20
2018-10-04T18:17:44.581Z,14.20
2018-10-04T18:20:19.961Z,14.20
2018-10-04T18:22:55.616Z,14.20
2018-10-04T18:25:31.077Z,14.30
2018-10-04T18:28:06.910Z,14.30
2018-10-04T18:30:42.278Z,14.20
2018-10-04T18:33:17.928Z,14.20
2018-10-04T18:35:53.545Z,14.30
2018-10-04T18:38:29.173Z,14.30
2018-10-04T18:41:04.534Z,14.30
2018-10-04T18:43:40.290Z,14.30
2018-10-04T18:46:15.593Z,14.30
2018-10-04T18:48:51.020Z,14.30
2018-10-04T18:51:26.233Z,14.30
2018-10-04T18:54:01.632Z,14.30
2018-10-04T18:56:37.262Z,14.30
2018-10-04T18:59:12.769Z,14.20
2018-10-04T19:01:48.269Z,14.30
2018-10-04T19:04:23.696Z,14.30
2018-10-04T19:06:58.986Z,14.30
2018-10-04T19:09:34.689Z,14.30
2018-10-04T19:12:10.031Z,14.30
2018-10-04T19:14:45.647Z,14.30
2018-10-04T19:17:21.225Z,14.30
2018-10-04T19:19:56.828Z,14.30
2018-10-04T19:22:32.412Z,14.30
2018-10-04T19:25:10.791Z,14.30
2018-10-04T19:27:46.130Z,14.30
2018-10-04T19:30:21.590Z,14.30
2018-10-04T19:32:56.898Z,14.30
2018-10-04T19:35:32.299Z,14.30
2018-10-04T19:38:07.721Z,14.30
2018-10-04T19:40:43.297Z,14.30
2018-10-04T19:43:18.522Z,14.30
2018-10-04T19:45:54.096Z,14.30
2018-10-04T19:48:29.681Z,14.30
2018-10-04T19:51:05.401Z,14.20
2018-10-04T19:53:40.956Z,14.20
2018-10-04T19:56:17.019Z,14.20
2018-10-04T19:58:52.323Z,14.20
2018-10-04T20:01:27.929Z,14.20
2018-10-04T20:04:03.346Z,14.20
2018-10-04T20:06:38.836Z,14.20
2018-10-04T20:09:14.503Z,14.10
2018-10-04T20:11:50.058Z,14.10
2018-10-04T20:14:25.445Z,14.20
2018-10-04T20:17:01.037Z,14.10
2018-10-04T20:19:36.413Z,14.20
2018-10-04T20:22:14.576Z,14.20
2018-10-04T20:24:56.612Z,14.20
2018-10-04T20:27:32.133Z,14.20
2018-10-04T20:30:07.566Z,14.20
2018-10-04T20:32:43.029Z,14.20
2018-10-04T20:35:18.485Z,14.10
2018-10-04T20:37:54.045Z,14.20
2018-10-04T20:40:29.551Z,14.20
2018-10-04T20:43:05.237Z,14.20
2018-10-04T20:45:40.701Z,14.20
2018-10-04T20:48:16.509Z,14.20
2018-10-04T20:50:52.021Z,14.20
2018-10-04T20:53:27.407Z,14.20
2018-10-04T20:56:03.105Z,14.20
2018-10-04T20:58:38.821Z,14.20
2018-10-04T21:01:14.150Z,14.20
2018-10-04T21:03:50.039Z,14.20
2018-10-04T21:06:25.375Z,14.20
2018-10-04T21:09:00.972Z,14.20
2018-10-04T21:11:36.676Z,14.20
2018-10-04T21:14:12.379Z,14.20
2018-10-04T21:16:47.754Z,14.20
2018-10-04T21:19:23.304Z,14.20
2018-10-04T21:21:59.054Z,14.20
2018-10-04T21:24:34.653Z,14.10
2018-10-04T21:27:10.033Z,14.10
2018-10-04T21:29:45.438Z,14.20
2018-10-04T21:32:21.067Z,14.10
2018-10-04T21:34:56.565Z,14.20
2018-10-04T21:37:32.122Z,14.10
2018-10-04T21:40:08.581Z,14.20
2018-10-04T21:42:43.866Z,14.10
2018-10-04T21:45:19.574Z,14.20
2018-10-04T21:47:55.086Z,14.20
2018-10-04T21:50:30.744Z,14.10
2018-10-04T21:53:06.418Z,14.00
2018-10-04T21:55:41.911Z,13.90
2018-10-04T21:58:17.493Z,13.70
2018-10-04T22:00:57.053Z,13.60
2018-10-04T22:03:33.004Z,13.50
2018-10-04T22:06:08.666Z,13.40
2018-10-04T22:08:44.247Z,13.30
2018-10-04T22:11:19.811Z,13.30
2018-10-04T22:13:55.269Z,13.30
2018-10-04T22:16:30.913Z,13.20
2018-10-04T22:19:07.368Z,13.20
2018-10-04T22:21:43.061Z,13.10
2018-10-04T22:24:18.582Z,13.10
2018-10-04T22:26:53.928Z,13.20
2018-10-04T22:29:29.397Z,13.20
2018-10-04T22:32:04.766Z,13.20
2018-10-04T22:34:40.250Z,13.20
2018-10-04T22:37:15.759Z,13.20
2018-10-04T22:39:51.000Z,13.20
2018-10-04T22:42:26.352Z,13.20
2018-10-04T22:45:01.918Z,13.20
2018-10-04T22:47:37.708Z,13.20
2018-10-04T22:50:19.513Z,13.10
2018-10-04T22:52:54.895Z,13.20
2018-10-04T22:55:30.465Z,13.20
2018-10-04T22:58:06.070Z,13.30
2018-10-04T23:00:41.671Z,13.30
2018-10-04T23:03:17.080Z,13.40
2018-10-04T23:05:52.449Z,13.50
2018-10-04T23:08:28.042Z,13.60
2018-10-04T23:11:03.441Z,13.60
2018-10-04T23:13:39.085Z,13.60
2018-10-04T23:16:14.452Z,13.60
2018-10-04T23:18:50.225Z,13.70
2018-10-04T23:21:25.827Z,13.70
2018-10-04T23:24:01.206Z,13.70
2018-10-04T23:26:36.701Z,13.70
2018-10-04T23:29:12.292Z,13.80
2018-10-04T23:31:47.641Z,13.80
2018-10-04T23:34:23.318Z,13.80
2018-10-04T23:36:58.889Z,13.80
2018-10-04T23:39:34.779Z,13.80
2018-10-04T23:42:10.328Z,13.80
2018-10-04T23:44:45.877Z,13.80
2018-10-04T23:47:21.263Z,13.80
2018-10-04T23:49:56.724Z,13.80
2018-10-04T23:52:32.150Z,13.80
2018-10-04T23:55:07.720Z,13.90
2018-10-04T23:57:43.035Z,13.80
